sensor_id;sensor_type;location;lat;lon;timestamp;pressure;altitude;pressure_sealevel;temperature;humidity
55189;BME280;41069;52.192;5.398;2023-01-25T00:01:22;103799.22;;;17.14;51.74
55189;BME280;41069;52.192;5.398;2023-01-25T00:03:49;103800.84;;;17.15;51.80
55189;BME280;41069;52.192;5.398;2023-01-25T00:09:19;103786.00;;;17.11;51.83
55189;BME280;41069;52.192;5.398;2023-01-25T00:11:47;103786.00;;;17.11;51.84
55189;BME280;41069;52.192;5.398;2023-01-25T00:14:14;103793.97;;;17.09;51.66
55189;BME280;41069;52.192;5.398;2023-01-25T00:16:40;103793.16;;;17.08;51.52
55189;BME280;41069;52.192;5.398;2023-01-25T00:19:07;103791.50;;;17.07;51.60
55189;BME280;41069;52.192;5.398;2023-01-25T00:21:37;103797.50;;;17.06;51.62
55189;BME280;41069;52.192;5.398;2023-01-25T00:24:03;103786.66;;;17.04;51.38
55189;BME280;41069;52.192;5.398;2023-01-25T00:26:31;103787.47;;;17.05;51.61
55189;BME280;41069;52.192;5.398;2023-01-25T00:28:57;103774.28;;;17.05;51.46
55189;BME280;41069;52.192;5.398;2023-01-25T00:34:59;103775.44;;;17.01;51.36
55189;BME280;41069;52.192;5.398;2023-01-25T00:37:35;103782.59;;;16.98;51.35
55189;BME280;41069;52.192;5.398;2023-01-25T00:40:02;103772.13;;;16.95;51.55
55189;BME280;41069;52.192;5.398;2023-01-25T00:42:38;103785.41;;;16.98;51.24
55189;BME280;41069;52.192;5.398;2023-01-25T00:45:07;103773.78;;;16.96;51.53
55189;BME280;41069;52.192;5.398;2023-01-25T00:47:54;103766.19;;;16.96;51.33
55189;BME280;41069;52.192;5.398;2023-01-25T00:50:20;103768.91;;;16.93;51.33
55189;BME280;41069;52.192;5.398;2023-01-25T00:52:52;103760.50;;;16.93;51.34
55189;BME280;41069;52.192;5.398;2023-01-25T00:55:19;103756.47;;;16.90;51.51
55189;BME280;41069;52.192;5.398;2023-01-25T00:57:45;103764.50;;;16.92;51.31
55189;BME280;41069;52.192;5.398;2023-01-25T01:00:12;103762.88;;;16.91;51.38
55189;BME280;41069;52.192;5.398;2023-01-25T01:02:40;103767.66;;;16.90;51.33
55189;BME280;41069;52.192;5.398;2023-01-25T01:05:06;103763.25;;;16.89;51.26
55189;BME280;41069;52.192;5.398;2023-01-25T01:07:42;103765.63;;;16.87;51.08
55189;BME280;41069;52.192;5.398;2023-01-25T01:10:11;103759.22;;;16.87;51.16
55189;BME280;41069;52.192;5.398;2023-01-25T01:12:37;103754.81;;;16.86;51.32
55189;BME280;41069;52.192;5.398;2023-01-25T01:15:03;103758.78;;;16.85;51.34
55189;BME280;41069;52.192;5.398;2023-01-25T01:17:29;103759.16;;;16.83;51.21
55189;BME280;41069;52.192;5.398;2023-01-25T01:19:56;103759.94;;;16.84;51.33
55189;BME280;41069;52.192;5.398;2023-01-25T01:22:24;103754.72;;;16.82;51.12
55189;BME280;41069;52.192;5.398;2023-01-25T01:24:50;103761.13;;;16.83;50.97
55189;BME280;41069;52.192;5.398;2023-01-25T01:27:19;103752.31;;;16.81;51.18
55189;BME280;41069;52.192;5.398;2023-01-25T01:29:46;103751.50;;;16.80;51.12
55189;BME280;41069;52.192;5.398;2023-01-25T01:32:32;103757.09;;;16.80;51.07
55189;BME280;41069;52.192;5.398;2023-01-25T01:35:13;103746.28;;;16.79;51.17
55189;BME280;41069;52.192;5.398;2023-01-25T01:37:41;103750.22;;;16.74;50.87
55189;BME280;41069;52.192;5.398;2023-01-25T01:40:19;103746.25;;;16.75;51.00
55189;BME280;41069;52.192;5.398;2023-01-25T01:43:04;103747.03;;;16.76;50.81
55189;BME280;41069;52.192;5.398;2023-01-25T01:45:52;103749.41;;;16.74;51.07
55189;BME280;41069;52.192;5.398;2023-01-25T01:48:46;103745.00;;;16.73;51.19
55189;BME280;41069;52.192;5.398;2023-01-25T01:53:56;103734.53;;;16.69;51.11
55189;BME280;41069;52.192;5.398;2023-01-25T01:56:52;103740.94;;;16.70;51.08
55189;BME280;41069;52.192;5.398;2023-01-25T01:59:14;103737.78;;;16.72;50.82
55189;BME280;41069;52.192;5.398;2023-01-25T02:01:40;103745.75;;;16.69;51.07
55189;BME280;41069;52.192;5.398;2023-01-25T02:04:08;103743.31;;;16.68;51.04
55189;BME280;41069;52.192;5.398;2023-01-25T02:06:40;103735.34;;;16.70;50.82
55189;BME280;41069;52.192;5.398;2023-01-25T02:09:08;103734.13;;;16.67;51.05
55189;BME280;41069;52.192;5.398;2023-01-25T02:11:36;103729.31;;;16.68;50.91
55189;BME280;41069;52.192;5.398;2023-01-25T02:14:02;103729.69;;;16.66;50.86
55189;BME280;41069;52.192;5.398;2023-01-25T02:16:35;103724.88;;;16.67;50.78
55189;BME280;41069;52.192;5.398;2023-01-25T02:19:02;103722.84;;;16.64;51.19
55189;BME280;41069;52.192;5.398;2023-01-25T02:21:43;103714.81;;;16.62;50.64
55189;BME280;41069;52.192;5.398;2023-01-25T02:24:31;103723.22;;;16.62;50.97
55189;BME280;41069;52.192;5.398;2023-01-25T02:27:02;103725.22;;;16.62;51.02
55189;BME280;41069;52.192;5.398;2023-01-25T02:29:29;103726.03;;;16.62;50.82
55189;BME280;41069;52.192;5.398;2023-01-25T02:31:59;103724.78;;;16.60;50.71
55189;BME280;41069;52.192;5.398;2023-01-25T02:34:26;103723.94;;;16.59;50.52
55189;BME280;41069;52.192;5.398;2023-01-25T02:36:52;103713.13;;;16.58;50.92
55189;BME280;41069;52.192;5.398;2023-01-25T02:39:18;103711.53;;;16.57;50.72
55189;BME280;41069;52.192;5.398;2023-01-25T02:41:47;103716.31;;;16.56;50.95
55189;BME280;41069;52.192;5.398;2023-01-25T02:46:43;103713.91;;;16.55;50.57
55189;BME280;41069;52.192;5.398;2023-01-25T02:49:11;103721.09;;;16.56;50.61
55189;BME280;41069;52.192;5.398;2023-01-25T02:51:41;103707.50;;;16.54;50.65
55189;BME280;41069;52.192;5.398;2023-01-25T02:54:09;103721.47;;;16.54;50.43
55189;BME280;41069;52.192;5.398;2023-01-25T02:56:37;103711.09;;;16.55;50.65
55189;BME280;41069;52.192;5.398;2023-01-25T02:59:03;103708.31;;;16.55;50.44
55189;BME280;41069;52.192;5.398;2023-01-25T03:01:33;103701.47;;;16.52;50.28
55189;BME280;41069;52.192;5.398;2023-01-25T03:04:00;103699.06;;;16.51;50.47
55189;BME280;41069;52.192;5.398;2023-01-25T03:06:44;103699.44;;;16.49;50.56
55189;BME280;41069;52.192;5.398;2023-01-25T03:09:10;103696.19;;;16.47;50.55
55189;BME280;41069;52.192;5.398;2023-01-25T03:11:37;103695.03;;;16.48;50.39
55189;BME280;41069;52.192;5.398;2023-01-25T03:14:03;103691.75;;;16.46;50.73
55189;BME280;41069;52.192;5.398;2023-01-25T03:16:30;103690.59;;;16.47;50.53
55189;BME280;41069;52.192;5.398;2023-01-25T03:18:56;103696.56;;;16.46;50.74
55189;BME280;41069;52.192;5.398;2023-01-25T03:21:31;103696.19;;;16.47;50.37
55189;BME280;41069;52.192;5.398;2023-01-25T03:24:03;103695.75;;;16.45;50.64
55189;BME280;41069;52.192;5.398;2023-01-25T03:26:29;103686.13;;;16.42;50.47
55189;BME280;41069;52.192;5.398;2023-01-25T03:28:55;103681.34;;;16.43;50.30
55189;BME280;41069;52.192;5.398;2023-01-25T03:31:21;103675.75;;;16.43;50.29
55189;BME280;41069;52.192;5.398;2023-01-25T03:33:52;103673.75;;;16.44;50.38
55189;BME280;41069;52.192;5.398;2023-01-25T03:36:19;103668.97;;;16.44;50.30
55189;BME280;41069;52.192;5.398;2023-01-25T03:38:58;103656.16;;;16.43;50.56
55189;BME280;41069;52.192;5.398;2023-01-25T03:41:24;103648.19;;;16.45;50.18
55189;BME280;41069;52.192;5.398;2023-01-25T03:43:50;103652.19;;;16.44;50.19
55189;BME280;41069;52.192;5.398;2023-01-25T03:46:16;103647.81;;;16.47;50.09
55189;BME280;41069;52.192;5.398;2023-01-25T03:48:46;103646.19;;;16.46;50.16
55189;BME280;41069;52.192;5.398;2023-01-25T03:51:12;103637.81;;;16.46;50.05
55189;BME280;41069;52.192;5.398;2023-01-25T03:53:38;103642.22;;;16.47;50.28
55189;BME280;41069;52.192;5.398;2023-01-25T03:56:08;103646.28;;;16.49;50.08
55189;BME280;41069;52.192;5.398;2023-01-25T03:58:37;103636.28;;;16.48;49.95
55189;BME280;41069;52.192;5.398;2023-01-25T04:01:04;103647.88;;;16.50;49.59
55189;BME280;41069;52.192;5.398;2023-01-25T04:03:31;103647.88;;;16.50;50.25
55189;BME280;41069;52.192;5.398;2023-01-25T04:05:58;103649.88;;;16.50;49.94
55189;BME280;41069;52.192;5.398;2023-01-25T04:08:31;103646.28;;;16.49;49.96
55189;BME280;41069;52.192;5.398;2023-01-25T04:11:03;103638.69;;;16.50;50.03
55189;BME280;41069;52.192;5.398;2023-01-25T04:13:29;103645.47;;;16.49;50.24
55189;BME280;41069;52.192;5.398;2023-01-25T04:15:55;103638.63;;;16.46;50.16
55189;BME280;41069;52.192;5.398;2023-01-25T04:18:21;103641.41;;;16.46;50.10
55189;BME280;41069;52.192;5.398;2023-01-25T04:20:54;103631.84;;;16.47;49.97
55189;BME280;41069;52.192;5.398;2023-01-25T04:23:20;103632.22;;;16.46;49.52
55189;BME280;41069;52.192;5.398;2023-01-25T04:26:03;103637.81;;;16.46;50.05
55189;BME280;41069;52.192;5.398;2023-01-25T04:28:31;103638.19;;;16.44;50.37
55189;BME280;41069;52.192;5.398;2023-01-25T04:30:57;103628.19;;;16.43;49.91
55189;BME280;41069;52.192;5.398;2023-01-25T04:33:31;103635.78;;;16.42;49.90
55189;BME280;41069;52.192;5.398;2023-01-25T04:35:57;103623.78;;;16.42;50.05
55189;BME280;41069;52.192;5.398;2023-01-25T04:38:24;103619.38;;;16.41;49.99
55189;BME280;41069;52.192;5.398;2023-01-25T04:40:50;103618.56;;;16.40;49.83
55189;BME280;41069;52.192;5.398;2023-01-25T04:43:18;103604.16;;;16.38;49.89
55189;BME280;41069;52.192;5.398;2023-01-25T04:45:49;103610.13;;;16.37;49.77
55189;BME280;41069;52.192;5.398;2023-01-25T04:48:21;103611.34;;;16.39;49.95
55189;BME280;41069;52.192;5.398;2023-01-25T04:50:47;103608.94;;;16.38;50.01
55189;BME280;41069;52.192;5.398;2023-01-25T04:53:15;103600.13;;;16.36;49.79
55189;BME280;41069;52.192;5.398;2023-01-25T04:55:45;103599.31;;;16.35;49.73
55189;BME280;41069;52.192;5.398;2023-01-25T04:58:11;103598.94;;;16.37;49.63
55189;BME280;41069;52.192;5.398;2023-01-25T05:00:37;103595.69;;;16.35;49.98
55189;BME280;41069;52.192;5.398;2023-01-25T05:03:03;103598.06;;;16.33;49.74
55189;BME280;41069;52.192;5.398;2023-01-25T05:05:29;103602.41;;;16.30;50.11
55189;BME280;41069;52.192;5.398;2023-01-25T05:07:55;103606.81;;;16.31;50.25
55189;BME280;41069;52.192;5.398;2023-01-25T05:10:25;103607.22;;;16.30;49.95
55189;BME280;41069;52.192;5.398;2023-01-25T05:12:54;103596.03;;;16.30;49.78
55189;BME280;41069;52.192;5.398;2023-01-25T05:15:32;103603.22;;;16.31;49.80
55189;BME280;41069;52.192;5.398;2023-01-25T05:18:01;103607.16;;;16.26;49.61
55189;BME280;41069;52.192;5.398;2023-01-25T05:20:27;103593.59;;;16.28;49.66
55189;BME280;41069;52.192;5.398;2023-01-25T05:22:55;103585.97;;;16.25;49.54
55189;BME280;41069;52.192;5.398;2023-01-25T05:25:21;103601.19;;;16.28;49.73
55189;BME280;41069;52.192;5.398;2023-01-25T05:27:52;103590.81;;;16.28;49.79
55189;BME280;41069;52.192;5.398;2023-01-25T05:30:20;103583.66;;;16.31;49.71
55189;BME280;41069;52.192;5.398;2023-01-25T05:33:02;103585.66;;;16.30;49.56
55189;BME280;41069;52.192;5.398;2023-01-25T05:35:31;103588.06;;;16.32;49.50
55189;BME280;41069;52.192;5.398;2023-01-25T05:38:00;103588.44;;;16.30;49.57
55189;BME280;41069;52.192;5.398;2023-01-25T05:40:34;103583.22;;;16.29;49.70
55189;BME280;41069;52.192;5.398;2023-01-25T05:43:25;103579.66;;;16.32;49.57
55189;BME280;41069;52.192;5.398;2023-01-25T05:46:02;103584.88;;;16.33;49.46
55189;BME280;41069;52.192;5.398;2023-01-25T05:48:37;103595.69;;;16.35;49.45
55189;BME280;41069;52.192;5.398;2023-01-25T05:51:20;103580.09;;;16.34;49.32
55189;BME280;41069;52.192;5.398;2023-01-25T05:53:49;103589.66;;;16.33;49.53
55189;BME280;41069;52.192;5.398;2023-01-25T05:56:17;103590.47;;;16.33;49.30
55189;BME280;41069;52.192;5.398;2023-01-25T05:59:00;103597.34;;;16.36;49.37
55189;BME280;41069;52.192;5.398;2023-01-25T06:01:27;103598.94;;;16.37;49.45
55189;BME280;41069;52.192;5.398;2023-01-25T06:03:55;103598.06;;;16.33;49.53
55189;BME280;41069;52.192;5.398;2023-01-25T06:06:22;103599.66;;;16.34;49.67
55189;BME280;41069;52.192;5.398;2023-01-25T06:08:48;103606.03;;;16.31;49.70
55189;BME280;41069;52.192;5.398;2023-01-25T06:11:18;103607.25;;;16.33;49.54
55189;BME280;41069;52.192;5.398;2023-01-25T06:13:57;103604.47;;;16.33;49.42
55189;BME280;41069;52.192;5.398;2023-01-25T06:16:23;103602.91;;;16.36;49.28
55189;BME280;41069;52.192;5.398;2023-01-25T06:18:49;103593.34;;;16.37;49.12
55189;BME280;41069;52.192;5.398;2023-01-25T06:21:29;103593.78;;;16.39;49.17
55189;BME280;41069;52.192;5.398;2023-01-25T06:24:17;103598.66;;;16.46;49.33
55189;BME280;41069;52.192;5.398;2023-01-25T06:26:43;103598.34;;;16.51;49.74
55189;BME280;41069;52.192;5.398;2023-01-25T06:29:21;103601.59;;;16.56;49.61
55189;BME280;41069;52.192;5.398;2023-01-25T06:31:47;103597.72;;;16.64;50.42
55189;BME280;41069;52.192;5.398;2023-01-25T06:34:19;103603.56;;;16.79;50.09
55189;BME280;41069;52.192;5.398;2023-01-25T06:36:47;103603.66;;;16.86;50.64
55189;BME280;41069;52.192;5.398;2023-01-25T06:39:13;103598.09;;;16.89;51.01
55189;BME280;41069;52.192;5.398;2023-01-25T06:41:41;103600.94;;;16.93;50.74
55189;BME280;41069;52.192;5.398;2023-01-25T06:44:07;103597.75;;;16.94;51.52
55189;BME280;41069;52.192;5.398;2023-01-25T06:46:33;103594.25;;;17.01;52.68
55189;BME280;41069;52.192;5.398;2023-01-25T06:49:06;103598.38;;;17.11;52.25
55189;BME280;41069;52.192;5.398;2023-01-25T06:51:32;103599.50;;;17.06;51.84
55189;BME280;41069;52.192;5.398;2023-01-25T06:54:01;103604.00;;;17.14;52.23
55189;BME280;41069;52.192;5.398;2023-01-25T06:56:27;103602.00;;;17.15;52.43
55189;BME280;41069;52.192;5.398;2023-01-25T06:58:55;103597.34;;;17.26;52.16
55189;BME280;41069;52.192;5.398;2023-01-25T07:01:22;103606.16;;;17.28;51.86
55189;BME280;41069;52.192;5.398;2023-01-25T07:03:50;103595.09;;;17.39;51.93
55189;BME280;41069;52.192;5.398;2023-01-25T07:06:16;103590.31;;;17.43;51.42
55189;BME280;41069;52.192;5.398;2023-01-25T07:08:44;103589.06;;;17.37;51.87
55189;BME280;41069;52.192;5.398;2023-01-25T07:11:23;103579.91;;;17.43;51.75
55189;BME280;41069;52.192;5.398;2023-01-25T07:13:53;103579.06;;;17.36;51.94
55189;BME280;41069;52.192;5.398;2023-01-25T07:16:21;103578.25;;;17.35;51.83
55189;BME280;41069;52.192;5.398;2023-01-25T07:18:47;103575.84;;;17.00;51.05
55189;BME280;41069;52.192;5.398;2023-01-25T07:21:31;103569.09;;;17.05;51.44
55189;BME280;41069;52.192;5.398;2023-01-25T07:24:01;103571.50;;;17.06;51.16
55189;BME280;41069;52.192;5.398;2023-01-25T07:26:31;103575.88;;;17.04;51.13
55189;BME280;41069;52.192;5.398;2023-01-25T07:28:58;103567.44;;;17.00;50.68
55189;BME280;41069;52.192;5.398;2023-01-25T07:31:44;103570.28;;;17.04;50.72
55189;BME280;41069;52.192;5.398;2023-01-25T07:34:11;103583.50;;;17.07;50.43
55189;BME280;41069;52.192;5.398;2023-01-25T07:36:37;103578.72;;;17.07;50.28
55189;BME280;41069;52.192;5.398;2023-01-25T07:39:10;103578.34;;;17.09;50.08
55189;BME280;41069;52.192;5.398;2023-01-25T07:41:39;103579.91;;;17.06;50.22
55189;BME280;41069;52.192;5.398;2023-01-25T07:44:05;103575.91;;;17.07;50.06
55189;BME280;41069;52.192;5.398;2023-01-25T07:46:37;103572.78;;;17.12;49.56
55189;BME280;41069;52.192;5.398;2023-01-25T07:49:03;103567.19;;;17.12;49.48
55189;BME280;41069;52.192;5.398;2023-01-25T07:51:29;103564.38;;;17.12;49.55
55189;BME280;41069;52.192;5.398;2023-01-25T07:54:03;103564.78;;;17.11;49.22
55189;BME280;41069;52.192;5.398;2023-01-25T07:56:31;103568.88;;;17.20;49.23
55189;BME280;41069;52.192;5.398;2023-01-25T07:58:59;103563.69;;;17.22;49.10
55189;BME280;41069;52.192;5.398;2023-01-25T08:01:29;103551.75;;;17.29;49.00
55189;BME280;41069;52.192;5.398;2023-01-25T08:03:55;103544.13;;;17.26;48.88
55189;BME280;41069;52.192;5.398;2023-01-25T08:06:23;103541.34;;;17.29;48.59
55189;BME280;41069;52.192;5.398;2023-01-25T08:08:49;103539.75;;;17.28;48.78
55189;BME280;41069;52.192;5.398;2023-01-25T08:11:18;103548.63;;;17.34;48.89
55189;BME280;41069;52.192;5.398;2023-01-25T08:13:45;103550.69;;;17.41;48.82
55189;BME280;41069;52.192;5.398;2023-01-25T08:16:12;103541.06;;;17.38;48.56
55189;BME280;41069;52.192;5.398;2023-01-25T08:18:38;103545.47;;;17.39;48.81
55189;BME280;41069;52.192;5.398;2023-01-25T08:21:04;103552.69;;;17.40;48.83
55189;BME280;41069;52.192;5.398;2023-01-25T08:23:30;103553.47;;;17.41;48.61
55189;BME280;41069;52.192;5.398;2023-01-25T08:26:03;103551.09;;;17.43;48.81
55189;BME280;41069;52.192;5.398;2023-01-25T08:28:29;103555.56;;;17.47;48.73
55189;BME280;41069;52.192;5.398;2023-01-25T08:31:04;103546.34;;;17.47;48.66
55189;BME280;41069;52.192;5.398;2023-01-25T08:33:30;103549.16;;;17.47;48.60
55189;BME280;41069;52.192;5.398;2023-01-25T08:35:56;103555.97;;;17.49;48.75
55189;BME280;41069;52.192;5.398;2023-01-25T08:38:23;103539.16;;;17.49;48.40
55189;BME280;41069;52.192;5.398;2023-01-25T08:40:49;103551.97;;;17.50;48.62
55189;BME280;41069;52.192;5.398;2023-01-25T08:43:14;103542.34;;;17.48;48.61
55189;BME280;41069;52.192;5.398;2023-01-25T08:45:40;103537.56;;;17.48;48.70
55189;BME280;41069;52.192;5.398;2023-01-25T08:48:06;103529.13;;;17.45;48.67
55189;BME280;41069;52.192;5.398;2023-01-25T08:50:35;103527.97;;;17.49;48.64
55189;BME280;41069;52.192;5.398;2023-01-25T08:53:01;103525.97;;;17.50;48.60
55189;BME280;41069;52.192;5.398;2023-01-25T08:58:33;103515.16;;;17.52;48.68
55189;BME280;41069;52.192;5.398;2023-01-25T09:01:03;103513.97;;;17.53;48.63
55189;BME280;41069;52.192;5.398;2023-01-25T09:03:29;103525.25;;;17.60;48.45
55189;BME280;41069;52.192;5.398;2023-01-25T09:05:55;103520.78;;;17.55;48.47
55189;BME280;41069;52.192;5.398;2023-01-25T09:08:24;103524.47;;;17.63;48.35
55189;BME280;41069;52.192;5.398;2023-01-25T09:10:50;103525.66;;;17.62;48.44
55189;BME280;41069;52.192;5.398;2023-01-25T09:13:16;103526.50;;;17.66;48.36
55189;BME280;41069;52.192;5.398;2023-01-25T09:15:45;103512.47;;;17.66;48.65
55189;BME280;41069;52.192;5.398;2023-01-25T09:18:11;103520.19;;;17.73;48.25
55189;BME280;41069;52.192;5.398;2023-01-25T09:20:37;103506.47;;;17.68;48.51
55189;BME280;41069;52.192;5.398;2023-01-25T09:23:06;103501.34;;;17.70;48.39
55189;BME280;41069;52.192;5.398;2023-01-25T09:25:32;103504.97;;;17.70;48.42
55189;BME280;41069;52.192;5.398;2023-01-25T09:28:01;103508.56;;;17.71;48.26
55189;BME280;41069;52.192;5.398;2023-01-25T09:30:27;103513.00;;;17.75;48.12
55189;BME280;41069;52.192;5.398;2023-01-25T09:32:53;103510.09;;;17.68;48.21
55189;BME280;41069;52.192;5.398;2023-01-25T09:35:19;103502.97;;;17.71;48.28
55189;BME280;41069;52.192;5.398;2023-01-25T09:37:49;103503.75;;;17.71;48.30
55189;BME280;41069;52.192;5.398;2023-01-25T09:40:21;103498.88;;;17.68;48.27
55189;BME280;41069;52.192;5.398;2023-01-25T09:43:02;103492.16;;;17.73;48.13
55189;BME280;41069;52.192;5.398;2023-01-25T09:45:36;103489.66;;;17.68;48.43
55189;BME280;41069;52.192;5.398;2023-01-25T09:48:24;103495.34;;;17.71;48.09
55189;BME280;41069;52.192;5.398;2023-01-25T09:53:42;103490.16;;;17.73;48.05
55189;BME280;41069;52.192;5.398;2023-01-25T09:56:24;103489.78;;;17.78;48.25
55189;BME280;41069;52.192;5.398;2023-01-25T09:58:54;103490.19;;;17.77;48.15
55189;BME280;41069;52.192;5.398;2023-01-25T10:01:37;103490.56;;;17.75;48.12
55189;BME280;41069;52.192;5.398;2023-01-25T10:04:13;103480.97;;;17.76;47.97
55189;BME280;41069;52.192;5.398;2023-01-25T10:06:43;103478.56;;;17.78;48.11
55189;BME280;41069;52.192;5.398;2023-01-25T10:09:41;103468.94;;;17.76;48.12
55189;BME280;41069;52.192;5.398;2023-01-25T10:12:23;103469.31;;;17.71;48.04
55189;BME280;41069;52.192;5.398;2023-01-25T10:14:50;103460.53;;;17.72;47.96
55189;BME280;41069;52.192;5.398;2023-01-25T10:17:31;103451.22;;;17.68;47.81
55189;BME280;41069;52.192;5.398;2023-01-25T10:20:28;103452.44;;;17.67;48.17
55189;BME280;41069;52.192;5.398;2023-01-25T10:23:08;103448.41;;;17.61;47.83
55189;BME280;41069;52.192;5.398;2023-01-25T10:25:44;103440.78;;;17.62;47.63
55189;BME280;41069;52.192;5.398;2023-01-25T10:28:19;103445.63;;;17.65;47.99
55189;BME280;41069;52.192;5.398;2023-01-25T10:30:59;103441.59;;;17.62;47.69
55189;BME280;41069;52.192;5.398;2023-01-25T10:33:33;103431.19;;;17.59;47.83
55189;BME280;41069;52.192;5.398;2023-01-25T10:36:02;103431.53;;;17.54;48.45
55189;BME280;41069;52.192;5.398;2023-01-25T10:38:33;103425.91;;;17.54;48.47
55189;BME280;41069;52.192;5.398;2023-01-25T10:41:08;103427.50;;;17.51;48.78
55189;BME280;41069;52.192;5.398;2023-01-25T10:43:37;103423.09;;;17.50;48.66
55189;BME280;41069;52.192;5.398;2023-01-25T10:46:08;103423.50;;;17.49;48.81
55189;BME280;41069;52.192;5.398;2023-01-25T10:48:41;103414.28;;;17.48;48.85
55189;BME280;41069;52.192;5.398;2023-01-25T10:51:07;103413.88;;;17.50;48.96
55189;BME280;41069;52.192;5.398;2023-01-25T10:53:35;103415.50;;;17.51;49.50
55189;BME280;41069;52.192;5.398;2023-01-25T10:56:14;103396.69;;;17.51;49.02
55189;BME280;41069;52.192;5.398;2023-01-25T10:58:46;103401.53;;;17.58;48.83
55189;BME280;41069;52.192;5.398;2023-01-25T11:01:32;103388.28;;;17.55;48.80
55189;BME280;41069;52.192;5.398;2023-01-25T11:03:59;103392.28;;;17.54;48.69
55189;BME280;41069;52.192;5.398;2023-01-25T11:06:33;103385.50;;;17.55;48.53
55189;BME280;41069;52.192;5.398;2023-01-25T11:09:00;103377.53;;;17.57;48.35
55189;BME280;41069;52.192;5.398;2023-01-25T11:11:36;103376.28;;;17.54;48.20
55189;BME280;41069;52.192;5.398;2023-01-25T11:14:15;103367.47;;;17.52;47.67
55189;BME280;41069;52.192;5.398;2023-01-25T11:16:44;103361.47;;;17.50;47.92
55189;BME280;41069;52.192;5.398;2023-01-25T11:21:53;103356.63;;;17.47;47.77
55189;BME280;41069;52.192;5.398;2023-01-25T11:24:19;103353.78;;;17.40;47.32
55189;BME280;41069;52.192;5.398;2023-01-25T11:26:46;103339.38;;;17.38;47.76
55189;BME280;41069;52.192;5.398;2023-01-25T11:29:19;103343.78;;;17.39;47.21
55189;BME280;41069;52.192;5.398;2023-01-25T11:31:52;103342.97;;;17.39;47.50
55189;BME280;41069;52.192;5.398;2023-01-25T11:34:21;103328.56;;;17.40;46.94
55189;BME280;41069;52.192;5.398;2023-01-25T11:39:58;103320.97;;;17.41;47.04
55189;BME280;41069;52.192;5.398;2023-01-25T11:42:35;103311.38;;;16.87;43.46
55189;BME280;41069;52.192;5.398;2023-01-25T11:45:22;103300.69;;;17.03;46.49
55189;BME280;41069;52.192;5.398;2023-01-25T11:51:10;103287.75;;;17.43;45.94
55189;BME280;41069;52.192;5.398;2023-01-25T11:53:55;103274.63;;;17.54;45.87
55189;BME280;41069;52.192;5.398;2023-01-25T11:56:59;103256.66;;;17.58;45.64
55189;BME280;41069;52.192;5.398;2023-01-25T12:05:26;103234.72;;;17.78;46.11
55189;BME280;41069;52.192;5.398;2023-01-25T12:08:00;103235.56;;;17.82;46.15
55189;BME280;41069;52.192;5.398;2023-01-25T12:10:50;103230.75;;;17.86;46.24
55189;BME280;41069;52.192;5.398;2023-01-25T12:13:47;103225.16;;;17.90;46.54
55189;BME280;41069;52.192;5.398;2023-01-25T12:19:20;103209.56;;;17.96;46.65
55189;BME280;41069;52.192;5.398;2023-01-25T12:22:13;103213.97;;;18.08;46.57
55189;BME280;41069;52.192;5.398;2023-01-25T12:25:13;103202.34;;;18.02;46.78
55189;BME280;41069;52.192;5.398;2023-01-25T12:33:23;103184.34;;;18.07;47.19
55189;BME280;41069;52.192;5.398;2023-01-25T12:38:58;103190.75;;;18.14;47.19
55189;BME280;41069;52.192;5.398;2023-01-25T12:41:46;103181.94;;;18.16;47.52
55189;BME280;41069;52.192;5.398;2023-01-25T12:47:23;103150.69;;;18.14;48.07
55189;BME280;41069;52.192;5.398;2023-01-25T12:50:19;103149.91;;;18.06;47.92
55189;BME280;41069;52.192;5.398;2023-01-25T12:55:18;103127.03;;;17.90;47.77
55189;BME280;41069;52.192;5.398;2023-01-25T12:58:18;103139.88;;;17.98;47.55
55189;BME280;41069;52.192;5.398;2023-01-25T13:01:03;103129.84;;;18.01;47.79
55189;BME280;41069;52.192;5.398;2023-01-25T13:06:21;103120.63;;;17.97;48.03
55189;BME280;41069;52.192;5.398;2023-01-25T13:16:47;103120.63;;;18.00;48.34
55189;BME280;41069;52.192;5.398;2023-01-25T13:21:56;103121.44;;;17.94;48.95
55189;BME280;41069;52.192;5.398;2023-01-25T13:25:37;103121.03;;;17.99;49.24
55189;BME280;41069;52.192;5.398;2023-01-25T13:27:37;103107.72;;;17.56;43.69
55189;BME280;41069;52.192;5.398;2023-01-25T13:33:01;103105.00;;;17.89;48.71
55189;BME280;41069;52.192;5.398;2023-01-25T13:38:53;103097.38;;;17.89;48.87
55189;BME280;41069;52.192;5.398;2023-01-25T13:41:19;103091.00;;;17.81;48.95
55189;BME280;41069;52.192;5.398;2023-01-25T13:43:53;103097.41;;;17.85;48.98
55189;BME280;41069;52.192;5.398;2023-01-25T13:46:42;103091.78;;;18.00;49.01
55189;BME280;41069;52.192;5.398;2023-01-25T13:49:17;103078.56;;;18.00;49.25
55189;BME280;41069;52.192;5.398;2023-01-25T13:51:45;103079.00;;;18.06;49.79
55189;BME280;41069;52.192;5.398;2023-01-25T13:54:15;103078.16;;;18.02;49.71
55189;BME280;41069;52.192;5.398;2023-01-25T13:56:44;103070.56;;;18.02;49.86
55189;BME280;41069;52.192;5.398;2023-01-25T13:59:38;103070.97;;;18.04;49.53
55189;BME280;41069;52.192;5.398;2023-01-25T14:02:18;103067.38;;;18.00;49.72
55189;BME280;41069;52.192;5.398;2023-01-25T14:04:49;103073.38;;;18.02;50.07
55189;BME280;41069;52.192;5.398;2023-01-25T14:07:18;103064.97;;;17.99;49.96
55189;BME280;41069;52.192;5.398;2023-01-25T14:09:46;103060.56;;;17.98;49.96
55189;BME280;41069;52.192;5.398;2023-01-25T14:12:32;103048.94;;;17.89;49.96
55189;BME280;41069;52.192;5.398;2023-01-25T14:15:22;103052.53;;;17.93;50.03
55189;BME280;41069;52.192;5.398;2023-01-25T14:21:20;103052.13;;;17.91;49.67
55189;BME280;41069;52.192;5.398;2023-01-25T14:23:47;103047.31;;;17.91;50.31
55189;BME280;41069;52.192;5.398;2023-01-25T14:26:33;103047.34;;;17.95;50.03